YM Venus — 9HCB8 — position and weather

sailwx.info

Track history (hours):
 
Tides and Currents Weather Stations Pressure Air Temp Water Temp Dewpoint Dewpoint Depression Visibility Wind Speed Wind Dir Waves Ship Positions

YM Venus

Last reported at 2016-Apr-30 09:33 UTC. Time now 2016-May-02 19:28 UTC.
Position N 32°16' E 026°59'.

Length 105 m; draft 5.5 m.

Type: Ship. MMSI: 215826000.

Date/timePositionNaut miles runAvg speedWind from/ knotsBaromVisibWave heightAir tempDewpointWater temp
2016-Apr-30 09:33N 32°16' E 026°59'52010.4
2016-Apr-28 07:30N 35°16' E 017°12'4310.8
2016-Apr-28 03:33N 35°32' E 016°23'1510.9
2016-Apr-28 02:12N 35°37' E 016°06'710.9
2016-Apr-28 01:33N 35°40' E 015°58'1110.9
2016-Apr-28 00:33N 35°43' E 015°45'1110.9
2016-Apr-27 23:33N 35°48' E 015°33'1110.9
2016-Apr-27 22:33N 35°53' E 015°21'1110.9
2016-Apr-27 21:32N 35°57' E 015°09'2210.7
2016-Apr-27 19:27N 36°05' E 014°43'1011.0
2016-Apr-27 18:33N 36°09' E 014°31'1111.1
2016-Apr-27 17:33N 36°13' E 014°19'1111.2
2016-Apr-27 16:33N 36°18' E 014°06'1111.2
2016-Apr-27 15:33N 36°23' E 013°54'1111.3
2016-Apr-27 14:33N 36°27' E 013°41'9711.6
2016-Apr-27 06:08N 37°07' E 011°50'  
2016-Apr-25 01:30N 36°46' W 000°43'3712.6
2016-Apr-24 22:32N 36°34' W 001°27'19012.7
2016-Apr-24 07:34N 36°03' W 005°19'4 0.4
2016-Apr-23 20:30N 36°06' W 005°23'2 1.7
2016-Apr-23 19:32N 36°05' W 005°21'6 5.8
2016-Apr-23 18:33N 36°04' W 005°14'1 0.6
2016-Apr-23 17:09N 36°05' W 005°15'3 4.8
2016-Apr-23 16:33N 36°04' W 005°18'5 4.5
2016-Apr-23 15:34N 36°01' W 005°22'253 9.6
2016-Apr-22 13:23N 38°02' W 009°60'910.8
2016-Apr-22 12:33N 38°10' W 010°02'5 5.1
2016-Apr-22 11:33N 38°15' W 010°04'1211.4
2016-Apr-22 10:32N 38°27' W 010°07'1111.4
2016-Apr-22 09:33N 38°37' W 010°11'1111.4
2016-Apr-22 08:33N 38°49' W 010°12'1211.8
2016-Apr-22 07:33N 39°01' W 010°12'1211.8
2016-Apr-22 06:33N 39°12' W 010°11'  
Track history (hours):
 
Tides and Currents Weather Stations Pressure Air Temp Water Temp Dewpoint Dewpoint Depression Visibility Wind Speed Wind Dir Waves Ship Positions

YM Venus

Last reported at 2016-Apr-30 09:33 UTC. Time now 2016-May-02 19:28 UTC.
Position N 32°16' E 026°59'.

Length 105 m; draft 5.5 m.

Type: Ship. MMSI: 215826000.

Date/timePositionNaut miles runAvg speedWind from/ knotsBaromVisibWave heightAir tempDewpointWater temp
2016-Apr-30 09:33N 32°16' E 026°59'52010.4
2016-Apr-28 07:30N 35°16' E 017°12'4310.8
2016-Apr-28 03:33N 35°32' E 016°23'1510.9
2016-Apr-28 02:12N 35°37' E 016°06'710.9
2016-Apr-28 01:33N 35°40' E 015°58'1110.9
2016-Apr-28 00:33N 35°43' E 015°45'1110.9
2016-Apr-27 23:33N 35°48' E 015°33'1110.9
2016-Apr-27 22:33N 35°53' E 015°21'1110.9
2016-Apr-27 21:32N 35°57' E 015°09'2210.7
2016-Apr-27 19:27N 36°05' E 014°43'1011.0
2016-Apr-27 18:33N 36°09' E 014°31'1111.1
2016-Apr-27 17:33N 36°13' E 014°19'1111.2
2016-Apr-27 16:33N 36°18' E 014°06'1111.2
2016-Apr-27 15:33N 36°23' E 013°54'1111.3
2016-Apr-27 14:33N 36°27' E 013°41'9711.6
2016-Apr-27 06:08N 37°07' E 011°50'  
2016-Apr-25 01:30N 36°46' W 000°43'3712.6
2016-Apr-24 22:32N 36°34' W 001°27'19012.7
2016-Apr-24 07:34N 36°03' W 005°19'4 0.4
2016-Apr-23 20:30N 36°06' W 005°23'2 1.7
2016-Apr-23 19:32N 36°05' W 005°21'6 5.8
2016-Apr-23 18:33N 36°04' W 005°14'1 0.6
2016-Apr-23 17:09N 36°05' W 005°15'3 4.8
2016-Apr-23 16:33N 36°04' W 005°18'5 4.5
2016-Apr-23 15:34N 36°01' W 005°22'253 9.6
2016-Apr-22 13:23N 38°02' W 009°60'910.8
2016-Apr-22 12:33N 38°10' W 010°02'5 5.1
2016-Apr-22 11:33N 38°15' W 010°04'1211.4
2016-Apr-22 10:32N 38°27' W 010°07'1111.4
2016-Apr-22 09:33N 38°37' W 010°11'1111.4
2016-Apr-22 08:33N 38°49' W 010°12'1211.8
2016-Apr-22 07:33N 39°01' W 010°12'1211.8
2016-Apr-22 06:33N 39°12' W 010°11'  

Dump ship's entire track history